createdAt,value
2023-02-27T00:02:13.339Z,-0.99
2023-02-27T00:04:40.010Z,-1.06
2023-02-27T00:07:07.347Z,-0.97
2023-02-27T00:09:34.062Z,-1.12
2023-02-27T00:12:01.572Z,-1.07
2023-02-27T00:14:28.320Z,-1.07
2023-02-27T00:16:55.005Z,-1.19
2023-02-27T00:19:21.937Z,-1.33
2023-02-27T00:21:48.692Z,-1.37
2023-02-27T00:24:15.429Z,-1.03
2023-02-27T00:26:42.050Z,-1.08
2023-02-27T00:29:08.799Z,-1.10
2023-02-27T00:31:35.617Z,-1.11
2023-02-27T00:34:02.970Z,-1.29
2023-02-27T00:36:30.120Z,-1.37
2023-02-27T00:38:56.777Z,-1.51
2023-02-27T00:41:23.551Z,-1.49
2023-02-27T00:43:50.237Z,-1.41
2023-02-27T00:46:17.088Z,-1.26
2023-02-27T00:48:43.808Z,-1.23
2023-02-27T00:51:10.475Z,-1.28
2023-02-27T00:53:37.178Z,-1.36
2023-02-27T00:56:04.026Z,-1.31
2023-02-27T00:58:30.885Z,-1.22
2023-02-27T01:00:59.889Z,-1.45
2023-02-27T01:03:26.884Z,-1.76
2023-02-27T01:05:53.542Z,-1.60
2023-02-27T01:08:20.795Z,-1.47
2023-02-27T01:10:47.521Z,-1.65
2023-02-27T01:13:14.225Z,-1.66
2023-02-27T01:15:40.955Z,-1.69
2023-02-27T01:18:07.753Z,-1.56
2023-02-27T01:20:34.459Z,-1.57
2023-02-27T01:23:01.186Z,-1.56
2023-02-27T01:25:27.925Z,-1.63
2023-02-27T01:27:54.687Z,-1.53
2023-02-27T01:30:21.336Z,-1.42
2023-02-27T01:32:48.027Z,-1.54
2023-02-27T01:35:14.807Z,-1.51
2023-02-27T01:37:41.666Z,-1.44
2023-02-27T01:40:09.490Z,-1.37
2023-02-27T01:42:36.440Z,-1.50
2023-02-27T01:45:12.293Z,-1.74
2023-02-27T01:47:42.200Z,-1.53
2023-02-27T01:50:09.644Z,-1.61
2023-02-27T01:52:38.564Z,-1.79
2023-02-27T01:55:08.653Z,-1.85
2023-02-27T01:57:36.348Z,-1.69
2023-02-27T02:00:04.719Z,-1.52
2023-02-27T02:02:37.559Z,-1.73
2023-02-27T02:05:06.074Z,-1.44
2023-02-27T02:07:35.212Z,-1.44
2023-02-27T02:10:02.719Z,-1.69
2023-02-27T02:12:34.043Z,-1.43
2023-02-27T02:15:00.794Z,-1.52
2023-02-27T02:17:33.162Z,-1.59
2023-02-27T02:20:24.220Z,-1.59
2023-02-27T02:23:18.164Z,-1.53
2023-02-27T02:26:06.895Z,-1.55
2023-02-27T02:29:03.343Z,-1.72
2023-02-27T02:31:51.456Z,-2.01
2023-02-27T02:34:30.058Z,-1.85
2023-02-27T02:37:02.311Z,-1.78
2023-02-27T02:39:39.956Z,-1.84
2023-02-27T02:42:24.155Z,-1.80
2023-02-27T02:44:53.588Z,-1.79
2023-02-27T02:47:38.157Z,-1.97
2023-02-27T02:50:42.565Z,-1.90
2023-02-27T02:53:36.151Z,-1.85
2023-02-27T02:56:12.475Z,-1.73
2023-02-27T02:59:00.812Z,-1.95
2023-02-27T03:01:36.858Z,-1.81
2023-02-27T03:04:29.496Z,-1.55
2023-02-27T03:07:25.238Z,-1.51
2023-02-27T03:10:03.516Z,-1.67
2023-02-27T03:12:32.988Z,-1.55
2023-02-27T03:15:06.548Z,-1.57
2023-02-27T03:17:35.909Z,-1.72
2023-02-27T03:20:08.278Z,-1.70
2023-02-27T03:22:42.451Z,-1.80
2023-02-27T03:25:12.083Z,-1.99
2023-02-27T03:27:51.339Z,-1.88
2023-02-27T03:30:30.865Z,-1.91
2023-02-27T03:33:02.769Z,-1.88
2023-02-27T03:35:43.730Z,-1.88
2023-02-27T03:38:24.302Z,-1.57
2023-02-27T03:41:22.276Z,-1.54
2023-02-27T03:44:07.855Z,-1.50
2023-02-27T03:46:35.426Z,-1.47
2023-02-27T03:49:02.195Z,-1.58
2023-02-27T03:51:31.148Z,-1.64
2023-02-27T03:54:00.456Z,-1.63
2023-02-27T03:56:37.953Z,-1.61
2023-02-27T03:59:05.307Z,-1.75
2023-02-27T04:01:31.892Z,-1.80
2023-02-27T04:04:08.407Z,-1.79
2023-02-27T04:06:56.706Z,-1.66
2023-02-27T04:09:43.125Z,-1.75
2023-02-27T04:12:24.759Z,-1.61
2023-02-27T04:15:03.004Z,-1.52
2023-02-27T04:17:31.405Z,-1.60
2023-02-27T04:20:20.603Z,-1.65
2023-02-27T04:22:49.147Z,-1.63
2023-02-27T04:25:34.314Z,-1.74
2023-02-27T04:28:17.616Z,-1.63
2023-02-27T04:31:16.456Z,-1.84
2023-02-27T04:33:52.035Z,-1.69
2023-02-27T04:36:18.575Z,-1.91
2023-02-27T04:38:51.467Z,-1.68
2023-02-27T04:41:23.221Z,-1.80
2023-02-27T04:43:52.004Z,-1.55
2023-02-27T04:46:23.741Z,-1.61
2023-02-27T04:49:12.524Z,-1.70
2023-02-27T04:51:51.929Z,-1.52
2023-02-27T04:54:26.547Z,-1.66
2023-02-27T04:56:57.741Z,-1.55
2023-02-27T04:59:41.218Z,-1.88
2023-02-27T05:02:25.844Z,-1.65
2023-02-27T05:04:58.199Z,-1.68
2023-02-27T05:07:31.531Z,-1.77
2023-02-27T05:10:00.764Z,-1.77
2023-02-27T05:12:47.704Z,-1.92
2023-02-27T05:15:35.864Z,-1.96
2023-02-27T05:18:05.607Z,-1.69
2023-02-27T05:20:59.043Z,-1.64
2023-02-27T05:23:39.988Z,-1.62
2023-02-27T05:26:22.092Z,-1.68
2023-02-27T05:29:02.725Z,-1.58
2023-02-27T05:31:43.931Z,-1.89
2023-02-27T05:34:39.822Z,-1.88
2023-02-27T05:37:18.466Z,-1.89
2023-02-27T05:39:47.356Z,-1.87
2023-02-27T05:42:24.835Z,-1.82
2023-02-27T05:45:00.747Z,-1.86
2023-02-27T05:47:31.360Z,-1.90
2023-02-27T05:50:12.492Z,-1.77
2023-02-27T05:52:41.074Z,-1.74
2023-02-27T05:55:30.500Z,-1.80
2023-02-27T05:58:14.064Z,-1.82
2023-02-27T06:00:46.793Z,-2.19
2023-02-27T06:03:14.141Z,-1.98
2023-02-27T06:05:42.869Z,-1.98
2023-02-27T06:08:10.354Z,-1.75
2023-02-27T06:10:38.014Z,-1.71
2023-02-27T06:13:04.605Z,-1.69
2023-02-27T06:15:31.213Z,-1.68
2023-02-27T06:17:58.001Z,-1.69
2023-02-27T06:20:24.577Z,-1.80
2023-02-27T06:22:51.201Z,-1.99
2023-02-27T06:25:17.974Z,-1.88
2023-02-27T06:27:44.604Z,-2.10
2023-02-27T06:30:11.812Z,-1.99
2023-02-27T06:32:38.445Z,-2.20
2023-02-27T06:35:06.456Z,-1.93
2023-02-27T06:37:33.630Z,-1.90
2023-02-27T06:40:00.298Z,-1.77
2023-02-27T06:42:27.513Z,-1.88
2023-02-27T06:44:54.154Z,-1.74
2023-02-27T06:47:20.707Z,-1.71
2023-02-27T06:49:47.351Z,-1.70
2023-02-27T06:52:13.987Z,-1.88
2023-02-27T06:54:40.633Z,-1.69
2023-02-27T06:57:07.261Z,-1.77
2023-02-27T06:59:33.989Z,-1.87
2023-02-27T07:02:00.726Z,-1.76
2023-02-27T07:04:27.363Z,-1.65
2023-02-27T07:07:34.107Z,-1.65
2023-02-27T07:09:40.555Z,-2.04
2023-02-27T07:12:08.126Z,-2.00
2023-02-27T07:14:35.017Z,-1.75
2023-02-27T07:17:04.783Z,-1.84
2023-02-27T07:19:33.788Z,-1.71
2023-02-27T07:22:00.394Z,-1.83
2023-02-27T07:24:27.000Z,-1.64
2023-02-27T07:26:54.940Z,-1.76
2023-02-27T07:29:21.513Z,-1.83
2023-02-27T07:31:48.386Z,-1.67
2023-02-27T07:34:15.691Z,-1.80
2023-02-27T07:36:42.537Z,-1.82
2023-02-27T07:39:10.711Z,-1.90
2023-02-27T07:41:37.350Z,-1.96
2023-02-27T07:44:04.060Z,-1.76
2023-02-27T07:46:31.142Z,-1.82
2023-02-27T07:48:58.030Z,-1.82
2023-02-27T07:51:24.609Z,-1.70
2023-02-27T07:53:51.262Z,-1.72
2023-02-27T07:56:17.912Z,-1.95
2023-02-27T07:58:44.484Z,-1.88
2023-02-27T08:01:11.223Z,-1.66
2023-02-27T08:03:37.803Z,-1.82
2023-02-27T08:06:04.655Z,-1.99
2023-02-27T08:08:31.210Z,-1.75
2023-02-27T08:10:58.546Z,-1.75
2023-02-27T08:13:48.322Z,-1.81
2023-02-27T08:16:11.975Z,-1.68
2023-02-27T08:18:39.130Z,-1.65
2023-02-27T08:21:06.004Z,-1.55
2023-02-27T08:23:34.613Z,-1.60
2023-02-27T08:26:02.493Z,-1.57
2023-02-27T08:28:29.380Z,-1.61
2023-02-27T08:30:56.228Z,-1.48
2023-02-27T08:33:23.996Z,-1.29
2023-02-27T08:35:50.634Z,-1.16
2023-02-27T08:38:17.232Z,-1.45
2023-02-27T08:40:43.783Z,-1.46
2023-02-27T08:43:10.428Z,-1.18
2023-02-27T08:45:37.056Z,-1.29
2023-02-27T08:48:03.884Z,-1.55
2023-02-27T08:50:30.510Z,-1.42
2023-02-27T08:52:57.210Z,-1.35
2023-02-27T08:55:23.889Z,-1.36
2023-02-27T08:57:50.460Z,-1.43
2023-02-27T09:00:17.818Z,-1.20
2023-02-27T09:02:44.586Z,-1.33
2023-02-27T09:05:11.517Z,-1.27
2023-02-27T09:07:38.187Z,-1.21
2023-02-27T09:10:05.820Z,-0.97
2023-02-27T09:12:32.703Z,-1.20
2023-02-27T09:14:59.297Z,-1.09
2023-02-27T09:17:26.301Z,-1.00
2023-02-27T09:19:53.067Z,-1.03
2023-02-27T09:22:20.104Z,-1.01
2023-02-27T09:24:46.722Z,-0.93
2023-02-27T09:27:13.427Z,-1.00
2023-02-27T09:29:40.036Z,-1.06
2023-02-27T09:32:06.788Z,-0.91
2023-02-27T09:34:33.728Z,-0.81
2023-02-27T09:37:01.109Z,-0.84
2023-02-27T09:39:30.004Z,-0.90
2023-02-27T09:42:02.741Z,0.23
2023-02-27T09:44:47.430Z,-0.22
2023-02-27T09:47:39.754Z,-0.49
2023-02-27T09:50:42.815Z,-0.63
2023-02-27T09:53:34.893Z,-0.70
2023-02-27T09:56:15.586Z,-0.84
2023-02-27T09:58:52.176Z,-0.96
2023-02-27T10:01:24.239Z,-0.60
2023-02-27T10:04:11.100Z,-0.62
2023-02-27T10:06:45.838Z,-0.70
2023-02-27T10:09:22.481Z,-0.71
2023-02-27T10:12:18.536Z,-0.42
2023-02-27T10:14:52.588Z,-0.50
2023-02-27T10:17:24.857Z,-0.60
2023-02-27T10:19:53.721Z,-0.34
2023-02-27T10:22:28.830Z,-0.30
2023-02-27T10:25:08.987Z,-0.49
2023-02-27T10:27:39.786Z,-0.36
2023-02-27T10:30:29.200Z,-0.39
2023-02-27T10:33:10.942Z,-0.25
2023-02-27T10:35:40.369Z,-0.29
2023-02-27T10:38:14.649Z,-0.38
2023-02-27T10:40:42.915Z,-0.35
2023-02-27T10:43:14.746Z,-0.33
2023-02-27T10:45:42.321Z,-0.46
2023-02-27T10:48:09.008Z,-0.48
2023-02-27T10:50:39.702Z,-0.85
2023-02-27T10:53:27.323Z,-0.59
2023-02-27T10:56:17.166Z,-0.45
2023-02-27T10:58:43.859Z,-0.43
2023-02-27T11:01:11.568Z,-0.36
2023-02-27T11:03:43.573Z,-0.75
2023-02-27T11:06:10.179Z,-0.59
2023-02-27T11:08:36.844Z,-0.43
2023-02-27T11:11:06.727Z,-0.49
2023-02-27T11:13:38.987Z,-0.43
2023-02-27T11:16:06.292Z,-0.40
2023-02-27T11:18:34.400Z,-0.26
2023-02-27T11:21:20.204Z,-0.49
2023-02-27T11:24:02.258Z,-0.55
2023-02-27T11:26:28.852Z,-0.36
2023-02-27T11:29:18.936Z,-0.39
2023-02-27T11:31:48.702Z,-0.32
2023-02-27T11:34:23.994Z,-0.45
2023-02-27T11:36:55.259Z,-0.79
2023-02-27T11:39:35.107Z,-0.45
2023-02-27T11:42:29.057Z,-0.39
2023-02-27T11:45:03.472Z,-0.90
2023-02-27T11:47:34.627Z,-0.65
2023-02-27T11:50:35.523Z,-0.48
2023-02-27T11:53:30.069Z,-0.36
2023-02-27T11:56:00.155Z,-0.52
2023-02-27T11:58:30.206Z,-0.37
2023-02-27T12:01:09.018Z,-0.37
2023-02-27T12:04:04.520Z,-0.25
2023-02-27T12:06:46.861Z,-0.18
2023-02-27T12:09:31.538Z,-0.06
2023-02-27T12:12:01.607Z,-0.32
2023-02-27T12:14:37.394Z,-0.06
2023-02-27T12:17:14.817Z,-0.15
2023-02-27T12:19:58.218Z,-0.17
2023-02-27T12:22:38.959Z,-0.25
2023-02-27T12:25:12.225Z,-0.16
2023-02-27T12:27:49.085Z,-0.06
2023-02-27T12:30:23.366Z,-0.08
2023-02-27T12:32:54.036Z,-0.15
2023-02-27T12:35:29.496Z,-0.16
2023-02-27T12:37:57.705Z,-0.03
2023-02-27T12:40:56.549Z,0.04
2023-02-27T12:43:38.197Z,-0.04
2023-02-27T12:46:27.158Z,-0.16
2023-02-27T12:49:19.637Z,-0.20
2023-02-27T12:52:13.063Z,-0.16
2023-02-27T12:54:53.565Z,-0.01
2023-02-27T12:57:37.841Z,-0.03
2023-02-27T13:00:19.165Z,-0.08
2023-02-27T13:03:13.578Z,-0.15
2023-02-27T13:06:17.465Z,0.12
2023-02-27T13:08:50.051Z,0.08
2023-02-27T13:11:18.611Z,0.01
2023-02-27T13:13:51.141Z,-0.02
2023-02-27T13:16:31.650Z,0.07
2023-02-27T13:19:22.091Z,0.20
2023-02-27T13:21:57.495Z,0.38
2023-02-27T13:24:31.060Z,0.32
2023-02-27T13:27:06.786Z,0.24
2023-02-27T13:29:40.884Z,0.31
2023-02-27T13:32:14.711Z,0.23
2023-02-27T13:34:49.234Z,0.09
2023-02-27T13:37:16.091Z,0.17
2023-02-27T13:39:46.018Z,0.30
2023-02-27T13:42:27.708Z,0.37
2023-02-27T13:45:02.555Z,0.43
2023-02-27T13:47:29.163Z,0.25
2023-02-27T13:50:01.576Z,-0.09
2023-02-27T13:52:33.657Z,-0.20
2023-02-27T13:55:11.169Z,-0.19
2023-02-27T13:57:38.814Z,0.10
2023-02-27T14:00:21.185Z,-0.08
2023-02-27T14:02:59.730Z,0.17
2023-02-27T14:05:39.098Z,0.01
2023-02-27T14:08:32.102Z,0.18
2023-02-27T14:11:17.366Z,0.35
2023-02-27T14:13:50.092Z,0.18
2023-02-27T14:16:41.722Z,0.27
2023-02-27T14:19:11.519Z,0.16
2023-02-27T14:22:24.474Z,0.08
2023-02-27T14:25:05.308Z,0.22
2023-02-27T14:27:46.380Z,0.31
2023-02-27T14:30:28.295Z,0.32
2023-02-27T14:32:59.643Z,0.21
2023-02-27T14:35:27.909Z,0.45
2023-02-27T14:37:54.777Z,0.39
2023-02-27T14:40:35.140Z,0.41
2023-02-27T14:43:20.875Z,0.42
2023-02-27T14:45:48.859Z,0.43
2023-02-27T14:48:26.916Z,0.17
2023-02-27T14:50:54.654Z,0.32
2023-02-27T14:53:26.459Z,0.27
2023-02-27T14:55:58.579Z,0.38
2023-02-27T14:58:26.218Z,0.09
2023-02-27T15:00:55.837Z,0.20
2023-02-27T15:03:27.325Z,0.21
2023-02-27T15:05:57.816Z,0.43
2023-02-27T15:08:28.502Z,0.37
2023-02-27T15:10:56.968Z,0.33
2023-02-27T15:13:42.474Z,0.36
2023-02-27T15:16:30.846Z,0.22
2023-02-27T15:19:02.768Z,0.21
2023-02-27T15:21:32.905Z,0.30
2023-02-27T15:24:05.973Z,0.14
2023-02-27T15:26:40.521Z,0.23
2023-02-27T15:29:08.800Z,0.21
2023-02-27T15:31:35.772Z,0.38
2023-02-27T15:34:04.176Z,0.16
2023-02-27T15:36:35.686Z,-0.04
2023-02-27T15:39:23.775Z,-0.00
2023-02-27T15:42:01.160Z,-0.14
2023-02-27T15:44:40.811Z,-0.16
2023-02-27T15:47:09.886Z,-0.16
2023-02-27T15:49:37.533Z,-0.20
2023-02-27T15:52:19.967Z,0.05
2023-02-27T15:54:50.834Z,-0.14
2023-02-27T15:57:17.767Z,-0.02
2023-02-27T15:59:44.429Z,-0.12
2023-02-27T16:02:41.594Z,-0.24
2023-02-27T16:05:20.572Z,-0.04
2023-02-27T16:07:47.998Z,-0.12
2023-02-27T16:10:23.200Z,-0.06
2023-02-27T16:12:50.103Z,-0.09
2023-02-27T16:15:38.306Z,-0.10
2023-02-27T16:18:08.043Z,-0.25
2023-02-27T16:20:45.251Z,-0.41
2023-02-27T16:23:20.838Z,-0.33
2023-02-27T16:26:09.020Z,-0.51
2023-02-27T16:28:45.181Z,-0.60
2023-02-27T16:31:33.724Z,-0.39
2023-02-27T16:34:03.419Z,-0.68
2023-02-27T16:36:31.604Z,-0.44
2023-02-27T16:38:58.384Z,-0.45
2023-02-27T16:41:25.596Z,-0.28
2023-02-27T16:43:53.532Z,-0.28
2023-02-27T16:46:22.252Z,0.67
2023-02-27T16:48:51.297Z,0.04
2023-02-27T16:51:20.234Z,-0.20
2023-02-27T16:53:48.160Z,-0.36
2023-02-27T16:56:15.440Z,-0.29
2023-02-27T16:58:42.840Z,-0.31
2023-02-27T17:01:09.514Z,-0.51
2023-02-27T17:03:36.119Z,-0.45
2023-02-27T17:06:03.512Z,-0.58
2023-02-27T17:08:31.212Z,-0.56
2023-02-27T17:10:58.214Z,-0.41
2023-02-27T17:13:25.368Z,-0.14
2023-02-27T17:15:52.447Z,-0.32
2023-02-27T17:18:19.733Z,-0.38
2023-02-27T17:20:46.470Z,-0.63
2023-02-27T17:23:14.462Z,-0.66
2023-02-27T17:25:42.442Z,-0.55
2023-02-27T17:28:09.617Z,-0.47
2023-02-27T17:30:36.421Z,-0.56
2023-02-27T17:33:04.255Z,-0.59
2023-02-27T17:35:31.135Z,-0.58
2023-02-27T17:37:59.461Z,-0.52
2023-02-27T17:40:26.528Z,-0.51
2023-02-27T17:42:53.221Z,-0.51
2023-02-27T17:45:24.584Z,-0.72
2023-02-27T17:47:51.132Z,-0.60
2023-02-27T17:50:17.772Z,-0.64
2023-02-27T17:52:45.722Z,-0.57
2023-02-27T17:55:14.286Z,-0.62
2023-02-27T17:57:40.897Z,-0.57
2023-02-27T18:00:10.070Z,-0.64
2023-02-27T18:02:37.211Z,-0.50
2023-02-27T18:05:04.760Z,-0.43
2023-02-27T18:07:31.565Z,-0.43
2023-02-27T18:09:58.268Z,-0.54
2023-02-27T18:12:25.441Z,-0.49
2023-02-27T18:14:52.104Z,-0.55
2023-02-27T18:17:18.660Z,-0.50
2023-02-27T18:19:45.319Z,-0.81
2023-02-27T18:22:15.188Z,-0.48
2023-02-27T18:24:41.953Z,-0.44
2023-02-27T18:27:08.647Z,-0.70
2023-02-27T18:29:36.530Z,-0.71
2023-02-27T18:32:03.439Z,-0.56
2023-02-27T18:34:30.440Z,-0.45
2023-02-27T18:36:58.261Z,-0.55
2023-02-27T18:39:25.043Z,-0.51
2023-02-27T18:41:51.760Z,-0.43
2023-02-27T18:44:18.406Z,-0.51
2023-02-27T18:46:45.174Z,-0.70
2023-02-27T18:49:11.841Z,-0.61
2023-02-27T18:51:38.390Z,-0.63
2023-02-27T18:54:07.040Z,-0.49
2023-02-27T18:56:33.737Z,-0.64
2023-02-27T18:59:05.138Z,-0.75
2023-02-27T19:01:35.548Z,-0.82
2023-02-27T19:04:04.839Z,-0.71
2023-02-27T19:06:36.859Z,-0.72
2023-02-27T19:09:09.053Z,-0.81
2023-02-27T19:11:36.613Z,-0.76
2023-02-27T19:14:05.708Z,-0.59
2023-02-27T19:16:33.257Z,-0.60
2023-02-27T19:19:01.640Z,-0.68
2023-02-27T19:21:29.250Z,-0.70
2023-02-27T19:23:55.965Z,-0.62
2023-02-27T19:26:24.221Z,-0.69
2023-02-27T19:28:52.130Z,-0.67
2023-02-27T19:31:18.978Z,-0.63
2023-02-27T19:33:45.602Z,-0.75
2023-02-27T19:36:15.287Z,-0.84
2023-02-27T19:38:42.344Z,-0.91
2023-02-27T19:41:11.995Z,-0.87
2023-02-27T19:43:40.275Z,-1.11
2023-02-27T19:46:13.020Z,-1.19
2023-02-27T19:48:40.286Z,-1.27
2023-02-27T19:51:09.403Z,-1.10
2023-02-27T19:53:37.727Z,-1.09
2023-02-27T19:56:11.650Z,-1.27
2023-02-27T19:58:39.362Z,-1.28
2023-02-27T20:01:07.246Z,-1.46
2023-02-27T20:03:35.333Z,-1.23
2023-02-27T20:06:06.317Z,-1.06
2023-02-27T20:08:34.017Z,-1.12
2023-02-27T20:11:04.283Z,-1.22
2023-02-27T20:13:31.451Z,-1.22
2023-02-27T20:16:02.431Z,-1.06
2023-02-27T20:18:30.261Z,-1.27
2023-02-27T20:21:06.623Z,-1.34
2023-02-27T20:23:35.354Z,-1.16
2023-02-27T20:26:11.968Z,-1.24
2023-02-27T20:28:39.322Z,-1.16
2023-02-27T20:31:13.880Z,-1.02
2023-02-27T20:33:41.293Z,-0.94
2023-02-27T20:36:09.803Z,-0.98
2023-02-27T20:38:39.493Z,-1.26
2023-02-27T20:41:11.753Z,-1.18
2023-02-27T20:43:38.824Z,-1.30
2023-02-27T20:46:07.357Z,-1.19
2023-02-27T20:48:33.970Z,-1.11
2023-02-27T20:51:12.114Z,-1.09
2023-02-27T20:53:40.733Z,-0.98
2023-02-27T20:56:08.452Z,-0.94
2023-02-27T20:58:35.838Z,-0.92
2023-02-27T21:01:04.282Z,-0.97
2023-02-27T21:03:38.572Z,-0.91
2023-02-27T21:06:06.936Z,-0.97
2023-02-27T21:08:38.875Z,-0.96
2023-02-27T21:11:10.678Z,-1.02
2023-02-27T21:13:37.854Z,-0.91
2023-02-27T21:16:06.115Z,-1.00
2023-02-27T21:18:34.143Z,-1.22
2023-02-27T21:21:06.654Z,-1.26
2023-02-27T21:23:34.522Z,-1.41
2023-02-27T21:26:01.176Z,-1.12
2023-02-27T21:28:27.839Z,-1.28
2023-02-27T21:30:54.592Z,-1.19
2023-02-27T21:33:24.256Z,-1.03
2023-02-27T21:35:50.847Z,-1.20
2023-02-27T21:38:17.512Z,-1.36
2023-02-27T21:40:44.233Z,-1.38
2023-02-27T21:43:10.833Z,-1.37
2023-02-27T21:45:41.582Z,-1.12
2023-02-27T21:48:08.361Z,-1.06
2023-02-27T21:50:35.997Z,-1.11
2023-02-27T21:53:02.630Z,-1.03
2023-02-27T21:55:29.270Z,-1.31
2023-02-27T21:57:56.988Z,-1.58
2023-02-27T22:00:26.720Z,-1.28
2023-02-27T22:02:53.746Z,-1.15
2023-02-27T22:05:20.605Z,-1.22
2023-02-27T22:07:47.673Z,-1.22
2023-02-27T22:10:14.266Z,-1.13
2023-02-27T22:12:40.941Z,-1.06
2023-02-27T22:15:08.336Z,-1.06
2023-02-27T22:17:34.965Z,-1.07
2023-02-27T22:20:01.605Z,-1.08
2023-02-27T22:22:28.268Z,-1.01
2023-02-27T22:24:55.184Z,-1.00
2023-02-27T22:27:21.774Z,-1.05
2023-02-27T22:29:48.357Z,-1.13
2023-02-27T22:32:15.016Z,-1.02
2023-02-27T22:34:41.708Z,-1.21
2023-02-27T22:37:08.261Z,-1.25
2023-02-27T22:39:34.838Z,-1.18
2023-02-27T22:42:01.566Z,-1.09
2023-02-27T22:44:28.172Z,-1.05
2023-02-27T22:46:55.759Z,-1.18
2023-02-27T22:49:23.903Z,-1.25
2023-02-27T22:51:52.003Z,-1.20
2023-02-27T22:54:21.296Z,-1.11
2023-02-27T22:56:51.010Z,-1.11
2023-02-27T22:59:17.743Z,-1.20
2023-02-27T23:01:44.494Z,-1.19
2023-02-27T23:04:11.888Z,-1.23
2023-02-27T23:06:40.490Z,-1.28
2023-02-27T23:09:10.990Z,-1.13
2023-02-27T23:11:37.588Z,-1.25
2023-02-27T23:14:04.256Z,-1.19
2023-02-27T23:16:30.885Z,-1.55
2023-02-27T23:18:59.722Z,-1.36
2023-02-27T23:21:32.245Z,-1.27
2023-02-27T23:23:58.858Z,-1.32
2023-02-27T23:26:28.499Z,-1.19
2023-02-27T23:28:56.713Z,-1.21
2023-02-27T23:31:23.402Z,-1.29
2023-02-27T23:33:50.388Z,-1.23
2023-02-27T23:36:17.772Z,-1.35
2023-02-27T23:38:46.665Z,-1.22
2023-02-27T23:41:16.823Z,-1.24
2023-02-27T23:43:44.958Z,-1.27
2023-02-27T23:46:14.403Z,-1.35
2023-02-27T23:48:41.755Z,-1.20
2023-02-27T23:51:09.492Z,-1.28
2023-02-27T23:53:37.639Z,-1.27
2023-02-27T23:56:25.620Z,-1.43
2023-02-27T23:59:01.560Z,-1.32
